Terminal Aerodrome Forecast
Issued by NWS

Home | Current Version | Previous Version | Text Only | Print | Product List | Glossary On
Versions: 1 2 3 4 5 6 7 8 9 10 11 12 13 14 15 16
000
FTUS45 KTFX 270520
TAFHLN
TAF
KHLN 270520Z 2706/2806 23006KT P6SM SCT060 BKN150
      TEMPO 2706/2710 -SHRA BKN040
     FM271000 VRB06KT P6SM SCT040 BKN060
      TEMPO 2710/2714 -SHRA BKN030
     FM271600 VRB06KT P6SM SCT060 BKN100 PROB30 2721/2802 6SM -TSRA
      BKN060CB=

USA.gov is the U.S. government's official web portal to all federal, state and local government web resources and services.